This is the latest recevied weather packets stored in our database for station/object IR1ZYZ-3. If no packets are shown the sender has not sent any weather packets the latest 10 day(s).
| Time | Temp. | Humidity | Pressure | Rain* | Wind** | Luminosity | Snow |
|---|---|---|---|---|---|---|---|
| 1777709265 | 19.44° C | 45% | 1027.2 hPa | - | - | - | - |
| 1777708661 | 18.33° C | 52% | 1027.3 hPa | - | - | - | - |
| 1777708056 | 18.33° C | 52% | 1027.4 hPa | - | - | - | - |
| 1777707451 | 16.67° C | 62% | 1027.5 hPa | - | - | - | - |
| 1777706847 | 16.11° C | 63% | 1027.6 hPa | - | - | - | - |
| 1777706242 | 15.56° C | 67% | 1027.6 hPa | - | - | - | - |
| 1777705637 | 15° C | 69% | 1027.6 hPa | - | - | - | - |
| 1777705033 | 14.44° C | 77% | 1027.7 hPa | - | - | - | - |
| 1777704429 | 13.33° C | 88% | 1027.8 hPa | - | - | - | - |
| 1777703824 | 12.78° C | 88% | 1027.8 hPa | - | - | - | - |
| 1777703219 | 12.22° C | 88% | 1027.8 hPa | - | - | - | - |
| 1777702614 | 12.22° C | 83% | 1027.8 hPa | - | - | - | - |
| 1777702010 | 11.67° C | 85% | 1027.8 hPa | - | - | - | - |
| 1777701406 | 11.67° C | 85% | 1027.8 hPa | - | - | - | - |
| 1777700800 | 11.11° C | 89% | 1027.8 hPa | - | - | - | - |
| 1777700195 | 11.11° C | 90% | 1027.8 hPa | - | - | - | - |
| 1777699591 | 10.56° C | 89% | 1027.9 hPa | - | - | - | - |
| 1777698986 | 10.56° C | 91% | 1027.7 hPa | - | - | - | - |
| 1777698986 | 10.56° C | 91% | 1027.7 hPa | - | - | - | - |
| 1777698381 | 10° C | 92% | 1027.9 hPa | - | - | - | - |
| 1777698381 | 10° C | 92% | - | - | - | - | - |
| 1777697776 | 10.56° C | 85% | 1027.7 hPa | - | - | - | - |
| 1777697171 | 10° C | 91% | 1027.7 hPa | - | - | - | - |
| 1777696566 | 10° C | 93% | 1027.8 hPa | - | - | - | - |
| 1777695961 | 10° C | 90% | 1027.8 hPa | - | - | - | - |
* Rain since midnight (hover to see other rain measurements)
** Current wind speed in m/s (hover to see current wind gust speed)